sensor_id;sensor_type;location;lat;lon;timestamp;P1;durP1;ratioP1;P2;durP2;ratioP2
39022;SDS011;25908;51.984;5.928;2023-04-15T00:01:29;5.20;;;3.45;;
39022;SDS011;25908;51.984;5.928;2023-04-15T00:03:57;8.20;;;4.18;;
39022;SDS011;25908;51.984;5.928;2023-04-15T00:06:23;7.60;;;3.92;;
39022;SDS011;25908;51.984;5.928;2023-04-15T00:08:50;7.20;;;3.53;;
39022;SDS011;25908;51.984;5.928;2023-04-15T00:11:16;8.25;;;3.97;;
39022;SDS011;25908;51.984;5.928;2023-04-15T00:13:42;7.60;;;4.10;;
39022;SDS011;25908;51.984;5.928;2023-04-15T00:16:08;7.22;;;4.22;;
39022;SDS011;25908;51.984;5.928;2023-04-15T00:18:34;6.95;;;4.13;;
39022;SDS011;25908;51.984;5.928;2023-04-15T00:21:00;7.13;;;4.53;;
39022;SDS011;25908;51.984;5.928;2023-04-15T00:23:26;6.90;;;4.65;;
39022;SDS011;25908;51.984;5.928;2023-04-15T00:25:52;7.47;;;4.50;;
39022;SDS011;25908;51.984;5.928;2023-04-15T00:28:18;6.07;;;4.40;;
39022;SDS011;25908;51.984;5.928;2023-04-15T00:30:44;5.43;;;3.70;;
39022;SDS011;25908;51.984;5.928;2023-04-15T00:33:12;8.18;;;4.10;;
39022;SDS011;25908;51.984;5.928;2023-04-15T00:35:38;7.15;;;3.55;;
39022;SDS011;25908;51.984;5.928;2023-04-15T00:38:04;7.13;;;3.60;;
39022;SDS011;25908;51.984;5.928;2023-04-15T00:40:34;8.27;;;4.13;;
39022;SDS011;25908;51.984;5.928;2023-04-15T00:43:00;8.90;;;4.90;;
39022;SDS011;25908;51.984;5.928;2023-04-15T00:45:26;6.30;;;4.00;;
39022;SDS011;25908;51.984;5.928;2023-04-15T00:47:52;5.57;;;3.97;;
39022;SDS011;25908;51.984;5.928;2023-04-15T00:50:18;6.70;;;3.90;;
39022;SDS011;25908;51.984;5.928;2023-04-15T00:52:44;7.38;;;4.18;;
39022;SDS011;25908;51.984;5.928;2023-04-15T00:55:09;6.13;;;3.30;;
39022;SDS011;25908;51.984;5.928;2023-04-15T00:57:41;5.80;;;3.55;;
39022;SDS011;25908;51.984;5.928;2023-04-15T01:00:07;8.07;;;4.25;;
39022;SDS011;25908;51.984;5.928;2023-04-15T01:02:34;6.07;;;3.67;;
39022;SDS011;25908;51.984;5.928;2023-04-15T01:05:02;5.63;;;3.83;;
39022;SDS011;25908;51.984;5.928;2023-04-15T01:07:28;6.78;;;4.10;;
39022;SDS011;25908;51.984;5.928;2023-04-15T01:09:54;5.65;;;4.07;;
39022;SDS011;25908;51.984;5.928;2023-04-15T01:12:20;8.32;;;3.92;;
39022;SDS011;25908;51.984;5.928;2023-04-15T01:14:46;6.15;;;3.42;;
39022;SDS011;25908;51.984;5.928;2023-04-15T01:17:16;5.90;;;3.95;;
39022;SDS011;25908;51.984;5.928;2023-04-15T01:19:42;6.82;;;4.18;;
39022;SDS011;25908;51.984;5.928;2023-04-15T01:22:07;6.85;;;3.58;;
39022;SDS011;25908;51.984;5.928;2023-04-15T01:24:34;5.88;;;3.72;;
39022;SDS011;25908;51.984;5.928;2023-04-15T01:27:00;7.03;;;3.75;;
39022;SDS011;25908;51.984;5.928;2023-04-15T01:29:26;5.65;;;4.00;;
39022;SDS011;25908;51.984;5.928;2023-04-15T01:31:53;6.40;;;3.38;;
39022;SDS011;25908;51.984;5.928;2023-04-15T01:34:19;6.82;;;3.90;;
39022;SDS011;25908;51.984;5.928;2023-04-15T01:36:46;6.43;;;4.00;;
39022;SDS011;25908;51.984;5.928;2023-04-15T01:39:12;7.28;;;4.22;;
39022;SDS011;25908;51.984;5.928;2023-04-15T01:41:38;8.63;;;3.85;;
39022;SDS011;25908;51.984;5.928;2023-04-15T01:44:06;5.97;;;3.55;;
39022;SDS011;25908;51.984;5.928;2023-04-15T01:46:32;6.28;;;3.97;;
39022;SDS011;25908;51.984;5.928;2023-04-15T01:48:58;7.57;;;4.40;;
39022;SDS011;25908;51.984;5.928;2023-04-15T01:51:23;7.43;;;4.00;;
39022;SDS011;25908;51.984;5.928;2023-04-15T01:53:49;7.93;;;4.38;;
39022;SDS011;25908;51.984;5.928;2023-04-15T01:56:16;6.32;;;3.85;;
39022;SDS011;25908;51.984;5.928;2023-04-15T01:58:42;6.53;;;4.47;;
39022;SDS011;25908;51.984;5.928;2023-04-15T02:01:08;7.18;;;4.10;;
39022;SDS011;25908;51.984;5.928;2023-04-15T02:03:35;6.38;;;4.63;;
39022;SDS011;25908;51.984;5.928;2023-04-15T02:06:01;6.68;;;4.00;;
39022;SDS011;25908;51.984;5.928;2023-04-15T02:08:28;5.95;;;3.97;;
39022;SDS011;25908;51.984;5.928;2023-04-15T02:10:54;7.55;;;4.18;;
39022;SDS011;25908;51.984;5.928;2023-04-15T02:13:20;7.05;;;4.45;;
39022;SDS011;25908;51.984;5.928;2023-04-15T02:15:46;5.40;;;3.85;;
39022;SDS011;25908;51.984;5.928;2023-04-15T02:18:13;5.28;;;4.05;;
39022;SDS011;25908;51.984;5.928;2023-04-15T02:20:45;7.15;;;4.03;;
39022;SDS011;25908;51.984;5.928;2023-04-15T02:23:11;6.55;;;3.80;;
39022;SDS011;25908;51.984;5.928;2023-04-15T02:25:37;6.85;;;4.32;;
39022;SDS011;25908;51.984;5.928;2023-04-15T02:28:05;7.07;;;4.40;;
39022;SDS011;25908;51.984;5.928;2023-04-15T02:30:31;6.47;;;4.32;;
39022;SDS011;25908;51.984;5.928;2023-04-15T02:32:57;6.25;;;4.20;;
39022;SDS011;25908;51.984;5.928;2023-04-15T02:35:24;6.43;;;4.15;;
39022;SDS011;25908;51.984;5.928;2023-04-15T02:37:50;8.52;;;4.60;;
39022;SDS011;25908;51.984;5.928;2023-04-15T02:40:16;7.38;;;4.72;;
39022;SDS011;25908;51.984;5.928;2023-04-15T02:42:42;6.13;;;4.10;;
39022;SDS011;25908;51.984;5.928;2023-04-15T02:45:08;6.75;;;3.90;;
39022;SDS011;25908;51.984;5.928;2023-04-15T02:47:36;6.93;;;4.00;;
39022;SDS011;25908;51.984;5.928;2023-04-15T02:50:06;5.68;;;4.13;;
39022;SDS011;25908;51.984;5.928;2023-04-15T02:52:36;6.97;;;4.00;;
39022;SDS011;25908;51.984;5.928;2023-04-15T02:55:05;7.55;;;4.80;;
39022;SDS011;25908;51.984;5.928;2023-04-15T02:57:32;7.57;;;4.50;;
39022;SDS011;25908;51.984;5.928;2023-04-15T02:59:58;7.15;;;4.40;;
39022;SDS011;25908;51.984;5.928;2023-04-15T03:02:24;7.47;;;4.53;;
39022;SDS011;25908;51.984;5.928;2023-04-15T03:04:51;6.43;;;4.45;;
39022;SDS011;25908;51.984;5.928;2023-04-15T03:07:17;7.57;;;4.65;;
39022;SDS011;25908;51.984;5.928;2023-04-15T03:09:44;6.60;;;4.57;;
39022;SDS011;25908;51.984;5.928;2023-04-15T03:12:09;6.93;;;4.80;;
39022;SDS011;25908;51.984;5.928;2023-04-15T03:14:35;7.32;;;4.45;;
39022;SDS011;25908;51.984;5.928;2023-04-15T03:17:01;8.32;;;4.90;;
39022;SDS011;25908;51.984;5.928;2023-04-15T03:19:27;6.88;;;4.75;;
39022;SDS011;25908;51.984;5.928;2023-04-15T03:21:52;7.50;;;4.80;;
39022;SDS011;25908;51.984;5.928;2023-04-15T03:24:19;7.00;;;4.88;;
39022;SDS011;25908;51.984;5.928;2023-04-15T03:26:47;7.38;;;5.10;;
39022;SDS011;25908;51.984;5.928;2023-04-15T03:29:13;7.55;;;5.13;;
39022;SDS011;25908;51.984;5.928;2023-04-15T03:31:38;7.85;;;5.13;;
39022;SDS011;25908;51.984;5.928;2023-04-15T03:34:04;9.05;;;5.05;;
39022;SDS011;25908;51.984;5.928;2023-04-15T03:36:30;7.57;;;5.47;;
39022;SDS011;25908;51.984;5.928;2023-04-15T03:38:58;7.07;;;5.00;;
39022;SDS011;25908;51.984;5.928;2023-04-15T03:41:26;9.23;;;5.93;;
39022;SDS011;25908;51.984;5.928;2023-04-15T03:43:52;8.65;;;5.53;;
39022;SDS011;25908;51.984;5.928;2023-04-15T03:46:18;9.35;;;5.57;;
39022;SDS011;25908;51.984;5.928;2023-04-15T03:48:44;8.90;;;5.10;;
39022;SDS011;25908;51.984;5.928;2023-04-15T03:51:10;8.32;;;5.10;;
39022;SDS011;25908;51.984;5.928;2023-04-15T03:53:38;10.40;;;5.43;;
39022;SDS011;25908;51.984;5.928;2023-04-15T03:56:06;7.55;;;5.68;;
39022;SDS011;25908;51.984;5.928;2023-04-15T03:58:32;7.20;;;5.25;;
39022;SDS011;25908;51.984;5.928;2023-04-15T04:00:58;9.10;;;5.63;;
39022;SDS011;25908;51.984;5.928;2023-04-15T04:03:23;8.27;;;5.85;;
39022;SDS011;25908;51.984;5.928;2023-04-15T04:05:49;10.75;;;5.40;;
39022;SDS011;25908;51.984;5.928;2023-04-15T04:08:15;7.38;;;5.28;;
39022;SDS011;25908;51.984;5.928;2023-04-15T04:10:41;7.65;;;5.15;;
39022;SDS011;25908;51.984;5.928;2023-04-15T04:13:07;8.70;;;5.80;;
39022;SDS011;25908;51.984;5.928;2023-04-15T04:15:33;7.78;;;5.45;;
39022;SDS011;25908;51.984;5.928;2023-04-15T04:17:58;8.77;;;5.80;;
39022;SDS011;25908;51.984;5.928;2023-04-15T04:20:24;8.30;;;5.68;;
39022;SDS011;25908;51.984;5.928;2023-04-15T04:22:50;9.60;;;6.05;;
39022;SDS011;25908;51.984;5.928;2023-04-15T04:25:16;7.93;;;5.38;;
39022;SDS011;25908;51.984;5.928;2023-04-15T04:27:41;10.02;;;6.28;;
39022;SDS011;25908;51.984;5.928;2023-04-15T04:30:07;8.10;;;5.60;;
39022;SDS011;25908;51.984;5.928;2023-04-15T04:32:33;7.45;;;5.35;;
39022;SDS011;25908;51.984;5.928;2023-04-15T04:34:58;9.68;;;6.38;;
39022;SDS011;25908;51.984;5.928;2023-04-15T04:37:24;8.45;;;6.15;;
39022;SDS011;25908;51.984;5.928;2023-04-15T04:39:50;8.27;;;6.07;;
39022;SDS011;25908;51.984;5.928;2023-04-15T04:42:16;8.95;;;6.20;;
39022;SDS011;25908;51.984;5.928;2023-04-15T04:44:41;9.20;;;5.93;;
39022;SDS011;25908;51.984;5.928;2023-04-15T04:47:07;9.52;;;6.70;;
39022;SDS011;25908;51.984;5.928;2023-04-15T04:49:33;8.43;;;5.80;;
39022;SDS011;25908;51.984;5.928;2023-04-15T04:51:58;9.88;;;6.60;;
39022;SDS011;25908;51.984;5.928;2023-04-15T04:54:24;9.15;;;6.43;;
39022;SDS011;25908;51.984;5.928;2023-04-15T04:56:50;11.80;;;7.00;;
39022;SDS011;25908;51.984;5.928;2023-04-15T04:59:16;10.10;;;6.45;;
39022;SDS011;25908;51.984;5.928;2023-04-15T05:01:42;8.60;;;6.75;;
39022;SDS011;25908;51.984;5.928;2023-04-15T05:04:07;9.30;;;6.50;;
39022;SDS011;25908;51.984;5.928;2023-04-15T05:06:33;10.80;;;6.78;;
39022;SDS011;25908;51.984;5.928;2023-04-15T05:09:01;10.80;;;7.15;;
39022;SDS011;25908;51.984;5.928;2023-04-15T05:11:27;9.25;;;6.82;;
39022;SDS011;25908;51.984;5.928;2023-04-15T05:13:55;9.57;;;6.28;;
39022;SDS011;25908;51.984;5.928;2023-04-15T05:16:22;10.02;;;6.47;;
39022;SDS011;25908;51.984;5.928;2023-04-15T05:18:49;9.75;;;6.60;;
39022;SDS011;25908;51.984;5.928;2023-04-15T05:21:15;9.63;;;6.60;;
39022;SDS011;25908;51.984;5.928;2023-04-15T05:23:41;10.65;;;7.22;;
39022;SDS011;25908;51.984;5.928;2023-04-15T05:26:07;11.80;;;7.03;;
39022;SDS011;25908;51.984;5.928;2023-04-15T05:28:33;10.18;;;7.05;;
39022;SDS011;25908;51.984;5.928;2023-04-15T05:30:59;9.15;;;6.80;;
39022;SDS011;25908;51.984;5.928;2023-04-15T05:33:25;8.85;;;6.72;;
39022;SDS011;25908;51.984;5.928;2023-04-15T05:35:51;7.90;;;6.50;;
39022;SDS011;25908;51.984;5.928;2023-04-15T05:38:17;10.23;;;7.80;;
39022;SDS011;25908;51.984;5.928;2023-04-15T05:40:42;11.55;;;7.75;;
39022;SDS011;25908;51.984;5.928;2023-04-15T05:43:08;8.75;;;6.80;;
39022;SDS011;25908;51.984;5.928;2023-04-15T05:45:34;9.57;;;7.18;;
39022;SDS011;25908;51.984;5.928;2023-04-15T05:48:00;9.68;;;7.40;;
39022;SDS011;25908;51.984;5.928;2023-04-15T05:50:26;11.18;;;7.88;;
39022;SDS011;25908;51.984;5.928;2023-04-15T05:52:51;11.43;;;7.35;;
39022;SDS011;25908;51.984;5.928;2023-04-15T05:55:17;9.57;;;7.18;;
39022;SDS011;25908;51.984;5.928;2023-04-15T05:57:42;10.10;;;6.47;;
39022;SDS011;25908;51.984;5.928;2023-04-15T06:00:08;9.52;;;7.32;;
39022;SDS011;25908;51.984;5.928;2023-04-15T06:02:34;9.00;;;7.00;;
39022;SDS011;25908;51.984;5.928;2023-04-15T06:05:00;10.38;;;8.02;;
39022;SDS011;25908;51.984;5.928;2023-04-15T06:07:26;9.10;;;7.60;;
39022;SDS011;25908;51.984;5.928;2023-04-15T06:09:51;11.00;;;6.97;;
39022;SDS011;25908;51.984;5.928;2023-04-15T06:12:17;10.63;;;7.07;;
39022;SDS011;25908;51.984;5.928;2023-04-15T06:14:42;10.93;;;7.72;;
39022;SDS011;25908;51.984;5.928;2023-04-15T06:17:11;9.68;;;7.53;;
39022;SDS011;25908;51.984;5.928;2023-04-15T06:19:38;11.35;;;7.45;;
39022;SDS011;25908;51.984;5.928;2023-04-15T06:22:04;10.38;;;7.00;;
39022;SDS011;25908;51.984;5.928;2023-04-15T06:24:31;11.25;;;7.45;;
39022;SDS011;25908;51.984;5.928;2023-04-15T06:26:57;10.40;;;7.35;;
39022;SDS011;25908;51.984;5.928;2023-04-15T06:29:22;9.80;;;7.30;;
39022;SDS011;25908;51.984;5.928;2023-04-15T06:31:48;10.90;;;7.20;;
39022;SDS011;25908;51.984;5.928;2023-04-15T06:34:14;9.90;;;7.97;;
39022;SDS011;25908;51.984;5.928;2023-04-15T06:36:39;11.25;;;7.85;;
39022;SDS011;25908;51.984;5.928;2023-04-15T06:39:05;9.43;;;6.90;;
39022;SDS011;25908;51.984;5.928;2023-04-15T06:41:31;8.73;;;6.68;;
39022;SDS011;25908;51.984;5.928;2023-04-15T06:43:56;9.45;;;7.00;;
39022;SDS011;25908;51.984;5.928;2023-04-15T06:46:22;10.20;;;6.80;;
39022;SDS011;25908;51.984;5.928;2023-04-15T06:48:48;9.00;;;6.45;;
39022;SDS011;25908;51.984;5.928;2023-04-15T06:51:16;9.68;;;7.03;;
39022;SDS011;25908;51.984;5.928;2023-04-15T06:53:42;9.38;;;6.97;;
39022;SDS011;25908;51.984;5.928;2023-04-15T06:56:08;10.02;;;7.60;;
39022;SDS011;25908;51.984;5.928;2023-04-15T06:58:33;11.25;;;7.88;;
39022;SDS011;25908;51.984;5.928;2023-04-15T07:00:59;10.48;;;7.57;;
39022;SDS011;25908;51.984;5.928;2023-04-15T07:03:25;9.98;;;7.80;;
39022;SDS011;25908;51.984;5.928;2023-04-15T07:05:51;9.68;;;7.30;;
39022;SDS011;25908;51.984;5.928;2023-04-15T07:08:17;10.45;;;7.97;;
39022;SDS011;25908;51.984;5.928;2023-04-15T07:10:43;10.00;;;7.18;;
39022;SDS011;25908;51.984;5.928;2023-04-15T07:13:11;9.80;;;6.07;;
39022;SDS011;25908;51.984;5.928;2023-04-15T07:15:37;8.10;;;6.10;;
39022;SDS011;25908;51.984;5.928;2023-04-15T07:18:02;9.05;;;6.65;;
39022;SDS011;25908;51.984;5.928;2023-04-15T07:20:28;10.35;;;7.18;;
39022;SDS011;25908;51.984;5.928;2023-04-15T07:22:54;8.23;;;5.97;;
39022;SDS011;25908;51.984;5.928;2023-04-15T07:25:20;9.52;;;7.30;;
39022;SDS011;25908;51.984;5.928;2023-04-15T07:27:46;10.00;;;7.05;;
39022;SDS011;25908;51.984;5.928;2023-04-15T07:30:11;8.93;;;6.68;;
39022;SDS011;25908;51.984;5.928;2023-04-15T07:32:37;9.10;;;7.20;;
39022;SDS011;25908;51.984;5.928;2023-04-15T07:35:03;9.77;;;7.38;;
39022;SDS011;25908;51.984;5.928;2023-04-15T07:37:29;10.95;;;8.05;;
39022;SDS011;25908;51.984;5.928;2023-04-15T07:39:57;9.05;;;6.97;;
39022;SDS011;25908;51.984;5.928;2023-04-15T07:42:23;9.57;;;7.30;;
39022;SDS011;25908;51.984;5.928;2023-04-15T07:44:53;10.52;;;7.68;;
39022;SDS011;25908;51.984;5.928;2023-04-15T07:47:27;9.85;;;6.60;;
39022;SDS011;25908;51.984;5.928;2023-04-15T07:49:53;9.57;;;6.80;;
39022;SDS011;25908;51.984;5.928;2023-04-15T07:52:18;9.43;;;6.65;;
39022;SDS011;25908;51.984;5.928;2023-04-15T07:54:44;9.60;;;7.40;;
39022;SDS011;25908;51.984;5.928;2023-04-15T07:57:10;8.23;;;6.00;;
39022;SDS011;25908;51.984;5.928;2023-04-15T07:59:38;9.15;;;6.88;;
39022;SDS011;25908;51.984;5.928;2023-04-15T08:02:04;9.48;;;6.32;;
39022;SDS011;25908;51.984;5.928;2023-04-15T08:04:30;8.57;;;6.50;;
39022;SDS011;25908;51.984;5.928;2023-04-15T08:06:56;8.93;;;5.93;;
39022;SDS011;25908;51.984;5.928;2023-04-15T08:09:22;8.65;;;7.00;;
39022;SDS011;25908;51.984;5.928;2023-04-15T08:11:48;8.27;;;6.20;;
39022;SDS011;25908;51.984;5.928;2023-04-15T08:14:15;8.07;;;5.40;;
39022;SDS011;25908;51.984;5.928;2023-04-15T08:16:40;8.68;;;5.30;;
39022;SDS011;25908;51.984;5.928;2023-04-15T08:19:06;7.63;;;4.95;;
39022;SDS011;25908;51.984;5.928;2023-04-15T08:21:35;6.30;;;4.32;;
39022;SDS011;25908;51.984;5.928;2023-04-15T08:24:01;7.00;;;4.72;;
39022;SDS011;25908;51.984;5.928;2023-04-15T08:26:27;6.85;;;4.65;;
39022;SDS011;25908;51.984;5.928;2023-04-15T08:28:52;6.63;;;4.28;;
39022;SDS011;25908;51.984;5.928;2023-04-15T08:31:18;5.88;;;4.35;;
39022;SDS011;25908;51.984;5.928;2023-04-15T08:33:47;5.40;;;3.85;;
39022;SDS011;25908;51.984;5.928;2023-04-15T08:36:13;5.05;;;3.35;;
39022;SDS011;25908;51.984;5.928;2023-04-15T08:38:39;5.53;;;3.40;;
39022;SDS011;25908;51.984;5.928;2023-04-15T08:41:14;6.05;;;3.95;;
39022;SDS011;25908;51.984;5.928;2023-04-15T08:43:46;5.07;;;3.33;;
39022;SDS011;25908;51.984;5.928;2023-04-15T08:46:25;5.68;;;3.15;;
39022;SDS011;25908;51.984;5.928;2023-04-15T08:48:52;5.32;;;3.45;;
39022;SDS011;25908;51.984;5.928;2023-04-15T08:51:21;4.35;;;3.20;;
39022;SDS011;25908;51.984;5.928;2023-04-15T08:53:47;5.45;;;3.50;;
39022;SDS011;25908;51.984;5.928;2023-04-15T08:56:14;4.78;;;3.08;;
39022;SDS011;25908;51.984;5.928;2023-04-15T08:58:44;5.55;;;3.33;;
39022;SDS011;25908;51.984;5.928;2023-04-15T09:01:11;4.90;;;3.22;;
39022;SDS011;25908;51.984;5.928;2023-04-15T09:03:37;5.00;;;3.22;;
39022;SDS011;25908;51.984;5.928;2023-04-15T09:06:04;5.53;;;3.78;;
39022;SDS011;25908;51.984;5.928;2023-04-15T09:08:31;4.85;;;3.40;;
39022;SDS011;25908;51.984;5.928;2023-04-15T09:10:58;4.57;;;3.13;;
39022;SDS011;25908;51.984;5.928;2023-04-15T09:13:25;5.75;;;2.95;;
39022;SDS011;25908;51.984;5.928;2023-04-15T09:15:50;4.50;;;3.10;;
39022;SDS011;25908;51.984;5.928;2023-04-15T09:18:30;4.53;;;2.83;;
39022;SDS011;25908;51.984;5.928;2023-04-15T09:21:06;5.05;;;3.00;;
39022;SDS011;25908;51.984;5.928;2023-04-15T09:23:40;5.87;;;3.63;;
39022;SDS011;25908;51.984;5.928;2023-04-15T09:26:18;4.97;;;3.40;;
39022;SDS011;25908;51.984;5.928;2023-04-15T09:28:43;4.80;;;3.22;;
39022;SDS011;25908;51.984;5.928;2023-04-15T09:31:09;5.43;;;3.28;;
39022;SDS011;25908;51.984;5.928;2023-04-15T09:33:35;5.90;;;3.63;;
39022;SDS011;25908;51.984;5.928;2023-04-15T09:36:22;5.25;;;3.63;;
39022;SDS011;25908;51.984;5.928;2023-04-15T09:38:58;5.00;;;3.38;;
39022;SDS011;25908;51.984;5.928;2023-04-15T09:41:26;5.22;;;2.65;;
39022;SDS011;25908;51.984;5.928;2023-04-15T09:43:52;4.60;;;2.90;;
39022;SDS011;25908;51.984;5.928;2023-04-15T09:46:39;5.13;;;2.60;;
39022;SDS011;25908;51.984;5.928;2023-04-15T09:49:09;5.30;;;3.60;;
39022;SDS011;25908;51.984;5.928;2023-04-15T09:51:36;4.57;;;2.70;;
39022;SDS011;25908;51.984;5.928;2023-04-15T09:54:02;4.93;;;2.90;;
39022;SDS011;25908;51.984;5.928;2023-04-15T09:56:35;4.45;;;2.85;;
39022;SDS011;25908;51.984;5.928;2023-04-15T09:59:05;5.90;;;3.35;;
39022;SDS011;25908;51.984;5.928;2023-04-15T10:01:31;6.13;;;3.25;;
39022;SDS011;25908;51.984;5.928;2023-04-15T10:03:57;4.47;;;3.00;;
39022;SDS011;25908;51.984;5.928;2023-04-15T10:06:26;4.53;;;2.50;;
39022;SDS011;25908;51.984;5.928;2023-04-15T10:08:53;4.10;;;2.85;;
39022;SDS011;25908;51.984;5.928;2023-04-15T10:11:20;3.72;;;2.75;;
39022;SDS011;25908;51.984;5.928;2023-04-15T10:13:48;4.60;;;2.83;;
39022;SDS011;25908;51.984;5.928;2023-04-15T10:16:15;4.60;;;3.05;;
39022;SDS011;25908;51.984;5.928;2023-04-15T10:18:43;4.47;;;2.95;;
39022;SDS011;25908;51.984;5.928;2023-04-15T10:21:10;4.88;;;2.67;;
39022;SDS011;25908;51.984;5.928;2023-04-15T10:23:38;4.32;;;2.50;;
39022;SDS011;25908;51.984;5.928;2023-04-15T10:26:04;4.10;;;2.72;;
39022;SDS011;25908;51.984;5.928;2023-04-15T10:28:30;7.28;;;2.63;;
39022;SDS011;25908;51.984;5.928;2023-04-15T10:30:57;3.95;;;2.30;;
39022;SDS011;25908;51.984;5.928;2023-04-15T10:33:24;4.30;;;2.60;;
39022;SDS011;25908;51.984;5.928;2023-04-15T10:35:51;4.40;;;2.42;;
39022;SDS011;25908;51.984;5.928;2023-04-15T10:38:32;4.70;;;2.90;;
39022;SDS011;25908;51.984;5.928;2023-04-15T10:41:20;2.97;;;2.10;;
39022;SDS011;25908;51.984;5.928;2023-04-15T10:43:51;6.97;;;3.15;;
39022;SDS011;25908;51.984;5.928;2023-04-15T10:46:37;4.95;;;2.20;;
39022;SDS011;25908;51.984;5.928;2023-04-15T10:49:10;3.53;;;2.03;;
39022;SDS011;25908;51.984;5.928;2023-04-15T10:51:52;3.67;;;2.25;;
39022;SDS011;25908;51.984;5.928;2023-04-15T10:59:28;3.75;;;2.28;;
39022;SDS011;25908;51.984;5.928;2023-04-15T11:01:55;3.42;;;1.95;;
39022;SDS011;25908;51.984;5.928;2023-04-15T11:09:59;4.40;;;2.30;;
39022;SDS011;25908;51.984;5.928;2023-04-15T11:12:37;3.58;;;2.35;;
39022;SDS011;25908;51.984;5.928;2023-04-15T11:20:40;3.45;;;2.20;;
39022;SDS011;25908;51.984;5.928;2023-04-15T11:23:11;3.33;;;1.93;;
39022;SDS011;25908;51.984;5.928;2023-04-15T11:25:46;4.68;;;2.10;;
39022;SDS011;25908;51.984;5.928;2023-04-15T11:28:15;3.95;;;2.17;;
39022;SDS011;25908;51.984;5.928;2023-04-15T11:30:41;2.83;;;1.83;;
39022;SDS011;25908;51.984;5.928;2023-04-15T11:33:08;2.17;;;1.33;;
39022;SDS011;25908;51.984;5.928;2023-04-15T11:35:36;2.28;;;1.42;;
39022;SDS011;25908;51.984;5.928;2023-04-15T11:38:04;3.42;;;1.52;;
39022;SDS011;25908;51.984;5.928;2023-04-15T11:40:34;2.45;;;1.60;;
39022;SDS011;25908;51.984;5.928;2023-04-15T11:43:07;2.33;;;1.27;;
39022;SDS011;25908;51.984;5.928;2023-04-15T11:45:35;2.35;;;1.52;;
39022;SDS011;25908;51.984;5.928;2023-04-15T11:48:08;2.10;;;1.08;;
39022;SDS011;25908;51.984;5.928;2023-04-15T11:50:37;2.25;;;1.02;;
39022;SDS011;25908;51.984;5.928;2023-04-15T11:58:12;2.10;;;1.10;;
39022;SDS011;25908;51.984;5.928;2023-04-15T12:03:12;1.42;;;0.90;;
39022;SDS011;25908;51.984;5.928;2023-04-15T12:14:01;2.33;;;1.27;;
39022;SDS011;25908;51.984;5.928;2023-04-15T12:16:43;1.77;;;1.10;;
39022;SDS011;25908;51.984;5.928;2023-04-15T12:19:11;3.72;;;1.10;;
39022;SDS011;25908;51.984;5.928;2023-04-15T12:24:15;2.88;;;1.10;;
39022;SDS011;25908;51.984;5.928;2023-04-15T12:26:48;1.10;;;0.85;;
39022;SDS011;25908;51.984;5.928;2023-04-15T12:29:24;1.40;;;0.88;;
39022;SDS011;25908;51.984;5.928;2023-04-15T12:31:55;2.42;;;0.88;;
39022;SDS011;25908;51.984;5.928;2023-04-15T12:34:26;2.88;;;0.77;;
39022;SDS011;25908;51.984;5.928;2023-04-15T12:36:53;1.73;;;0.68;;
39022;SDS011;25908;51.984;5.928;2023-04-15T12:39:26;2.05;;;0.70;;
39022;SDS011;25908;51.984;5.928;2023-04-15T12:42:02;1.55;;;0.98;;
39022;SDS011;25908;51.984;5.928;2023-04-15T12:44:34;1.70;;;0.80;;
39022;SDS011;25908;51.984;5.928;2023-04-15T12:47:01;2.28;;;1.10;;
39022;SDS011;25908;51.984;5.928;2023-04-15T12:49:29;1.42;;;0.80;;
39022;SDS011;25908;51.984;5.928;2023-04-15T12:51:57;2.03;;;1.02;;
39022;SDS011;25908;51.984;5.928;2023-04-15T12:54:24;2.80;;;1.10;;
39022;SDS011;25908;51.984;5.928;2023-04-15T12:56:54;1.58;;;0.85;;
39022;SDS011;25908;51.984;5.928;2023-04-15T12:59:20;1.42;;;1.00;;
39022;SDS011;25908;51.984;5.928;2023-04-15T13:01:47;1.60;;;0.90;;
39022;SDS011;25908;51.984;5.928;2023-04-15T13:04:15;2.05;;;0.90;;
39022;SDS011;25908;51.984;5.928;2023-04-15T13:06:41;3.03;;;1.10;;
39022;SDS011;25908;51.984;5.928;2023-04-15T13:09:07;2.45;;;1.00;;
39022;SDS011;25908;51.984;5.928;2023-04-15T13:11:33;2.42;;;1.00;;
39022;SDS011;25908;51.984;5.928;2023-04-15T13:14:00;2.70;;;0.70;;
39022;SDS011;25908;51.984;5.928;2023-04-15T13:16:27;1.10;;;0.70;;
39022;SDS011;25908;51.984;5.928;2023-04-15T13:18:55;2.22;;;0.88;;
39022;SDS011;25908;51.984;5.928;2023-04-15T13:21:20;3.70;;;0.90;;
39022;SDS011;25908;51.984;5.928;2023-04-15T13:23:47;3.97;;;0.90;;
39022;SDS011;25908;51.984;5.928;2023-04-15T13:26:14;2.63;;;0.80;;
39022;SDS011;25908;51.984;5.928;2023-04-15T13:28:40;2.40;;;0.80;;
39022;SDS011;25908;51.984;5.928;2023-04-15T13:31:06;3.03;;;0.85;;
39022;SDS011;25908;51.984;5.928;2023-04-15T13:33:31;1.05;;;0.63;;
39022;SDS011;25908;51.984;5.928;2023-04-15T13:35:57;1.55;;;0.60;;
39022;SDS011;25908;51.984;5.928;2023-04-15T13:38:23;2.25;;;0.65;;
39022;SDS011;25908;51.984;5.928;2023-04-15T13:40:49;2.83;;;0.60;;
39022;SDS011;25908;51.984;5.928;2023-04-15T13:43:15;3.22;;;1.00;;
39022;SDS011;25908;51.984;5.928;2023-04-15T13:45:41;1.65;;;0.70;;
39022;SDS011;25908;51.984;5.928;2023-04-15T13:48:07;1.40;;;0.63;;
39022;SDS011;25908;51.984;5.928;2023-04-15T13:50:33;1.60;;;0.75;;
39022;SDS011;25908;51.984;5.928;2023-04-15T13:52:59;2.15;;;0.63;;
39022;SDS011;25908;51.984;5.928;2023-04-15T13:55:25;1.88;;;0.80;;
39022;SDS011;25908;51.984;5.928;2023-04-15T13:57:51;1.10;;;0.75;;
39022;SDS011;25908;51.984;5.928;2023-04-15T14:00:16;1.65;;;0.68;;
39022;SDS011;25908;51.984;5.928;2023-04-15T14:02:42;2.17;;;0.80;;
39022;SDS011;25908;51.984;5.928;2023-04-15T14:05:08;1.92;;;0.70;;
39022;SDS011;25908;51.984;5.928;2023-04-15T14:07:34;1.75;;;0.50;;
39022;SDS011;25908;51.984;5.928;2023-04-15T14:10:00;2.47;;;0.70;;
39022;SDS011;25908;51.984;5.928;2023-04-15T14:12:26;2.45;;;0.50;;
39022;SDS011;25908;51.984;5.928;2023-04-15T14:14:52;2.67;;;0.80;;
39022;SDS011;25908;51.984;5.928;2023-04-15T14:17:17;1.65;;;0.70;;
39022;SDS011;25908;51.984;5.928;2023-04-15T14:19:46;2.50;;;0.80;;
39022;SDS011;25908;51.984;5.928;2023-04-15T14:22:14;1.42;;;0.50;;
39022;SDS011;25908;51.984;5.928;2023-04-15T14:24:42;4.60;;;0.70;;
39022;SDS011;25908;51.984;5.928;2023-04-15T14:27:08;3.90;;;1.13;;
39022;SDS011;25908;51.984;5.928;2023-04-15T14:29:37;4.18;;;0.80;;
39022;SDS011;25908;51.984;5.928;2023-04-15T14:32:03;1.45;;;0.73;;
39022;SDS011;25908;51.984;5.928;2023-04-15T14:34:29;1.27;;;0.70;;
39022;SDS011;25908;51.984;5.928;2023-04-15T14:36:55;3.85;;;0.93;;
39022;SDS011;25908;51.984;5.928;2023-04-15T14:39:21;2.15;;;0.60;;
39022;SDS011;25908;51.984;5.928;2023-04-15T14:41:47;1.52;;;0.70;;
39022;SDS011;25908;51.984;5.928;2023-04-15T14:44:13;1.10;;;0.70;;
39022;SDS011;25908;51.984;5.928;2023-04-15T14:46:39;2.03;;;0.82;;
39022;SDS011;25908;51.984;5.928;2023-04-15T14:49:05;2.97;;;1.13;;
39022;SDS011;25908;51.984;5.928;2023-04-15T14:51:30;3.33;;;0.93;;
39022;SDS011;25908;51.984;5.928;2023-04-15T14:53:56;1.67;;;0.90;;
39022;SDS011;25908;51.984;5.928;2023-04-15T14:56:22;3.03;;;1.20;;
39022;SDS011;25908;51.984;5.928;2023-04-15T14:58:48;2.47;;;1.00;;
39022;SDS011;25908;51.984;5.928;2023-04-15T15:01:14;4.22;;;1.05;;
39022;SDS011;25908;51.984;5.928;2023-04-15T15:03:40;1.70;;;1.10;;
39022;SDS011;25908;51.984;5.928;2023-04-15T15:06:05;2.85;;;1.13;;
39022;SDS011;25908;51.984;5.928;2023-04-15T15:08:34;3.40;;;1.00;;
39022;SDS011;25908;51.984;5.928;2023-04-15T15:11:01;3.88;;;0.90;;
39022;SDS011;25908;51.984;5.928;2023-04-15T15:13:26;2.38;;;0.90;;
39022;SDS011;25908;51.984;5.928;2023-04-15T15:15:52;2.00;;;1.05;;
39022;SDS011;25908;51.984;5.928;2023-04-15T15:18:18;5.22;;;1.70;;
39022;SDS011;25908;51.984;5.928;2023-04-15T15:20:44;3.03;;;0.93;;